sensor_id;sensor_type;location;lat;lon;timestamp;pressure;altitude;pressure_sealevel;temperature;humidity
60240;BME280;46102;39.012;-7.064;2023-08-06T00:01:39;98307.63;;;29.17;19.38
60240;BME280;46102;39.012;-7.064;2023-08-06T00:03:40;98310.88;;;29.15;19.51
60240;BME280;46102;39.012;-7.064;2023-08-06T00:05:42;98309.75;;;29.13;19.65
60240;BME280;46102;39.012;-7.064;2023-08-06T00:07:44;98311.44;;;29.10;19.72
60240;BME280;46102;39.012;-7.064;2023-08-06T00:09:45;98311.88;;;29.09;19.44
60240;BME280;46102;39.012;-7.064;2023-08-06T00:11:46;98303.84;;;29.07;20.07
60240;BME280;46102;39.012;-7.064;2023-08-06T00:13:47;98305.06;;;29.06;20.04
60240;BME280;46102;39.012;-7.064;2023-08-06T00:15:48;98300.69;;;29.05;19.90
60240;BME280;46102;39.012;-7.064;2023-08-06T00:17:48;98302.69;;;29.04;19.92
60240;BME280;46102;39.012;-7.064;2023-08-06T00:19:49;98303.50;;;29.05;19.62
60240;BME280;46102;39.012;-7.064;2023-08-06T00:21:50;98305.50;;;29.04;20.18
60240;BME280;46102;39.012;-7.064;2023-08-06T00:23:51;98304.72;;;29.04;20.30
60240;BME280;46102;39.012;-7.064;2023-08-06T00:25:52;98301.13;;;29.03;19.78
60240;BME280;46102;39.012;-7.064;2023-08-06T00:27:53;98301.91;;;29.04;19.97
60240;BME280;46102;39.012;-7.064;2023-08-06T00:29:55;98308.81;;;29.03;20.06
60240;BME280;46102;39.012;-7.064;2023-08-06T00:31:56;98303.16;;;29.03;19.83
60240;BME280;46102;39.012;-7.064;2023-08-06T00:33:59;98299.19;;;29.00;19.85
60240;BME280;46102;39.012;-7.064;2023-08-06T00:36:00;98299.63;;;28.99;20.20
60240;BME280;46102;39.012;-7.064;2023-08-06T00:38:01;98302.56;;;28.95;20.06
60240;BME280;46102;39.012;-7.064;2023-08-06T00:40:01;98294.66;;;28.90;20.16
60240;BME280;46102;39.012;-7.064;2023-08-06T00:42:02;98288.78;;;28.84;20.47
60240;BME280;46102;39.012;-7.064;2023-08-06T00:44:04;98302.97;;;28.81;20.31
60240;BME280;46102;39.012;-7.064;2023-08-06T00:46:05;98303.97;;;28.74;20.36
60240;BME280;46102;39.012;-7.064;2023-08-06T00:48:06;98302.50;;;28.70;20.45
60240;BME280;46102;39.012;-7.064;2023-08-06T00:50:08;98299.09;;;28.62;20.61
60240;BME280;46102;39.012;-7.064;2023-08-06T00:52:09;98298.81;;;28.56;20.83
60240;BME280;46102;39.012;-7.064;2023-08-06T00:54:12;98294.59;;;28.48;20.64
60240;BME280;46102;39.012;-7.064;2023-08-06T00:56:12;98295.13;;;28.43;20.62
60240;BME280;46102;39.012;-7.064;2023-08-06T00:58:15;98294.97;;;28.34;20.78
60240;BME280;46102;39.012;-7.064;2023-08-06T01:00:16;98292.88;;;28.21;20.82
60240;BME280;46102;39.012;-7.064;2023-08-06T01:02:17;98292.69;;;28.12;21.05
60240;BME280;46102;39.012;-7.064;2023-08-06T01:04:18;98297.38;;;28.02;21.01
60240;BME280;46102;39.012;-7.064;2023-08-06T01:06:33;98288.41;;;27.91;20.87
60240;BME280;46102;39.012;-7.064;2023-08-06T01:13:11;98288.19;;;27.66;21.24
60240;BME280;46102;39.012;-7.064;2023-08-06T01:15:25;98293.91;;;27.62;21.20
60240;BME280;46102;39.012;-7.064;2023-08-06T01:17:29;98292.41;;;27.57;21.30
60240;BME280;46102;39.012;-7.064;2023-08-06T01:19:31;98296.09;;;27.54;21.26
60240;BME280;46102;39.012;-7.064;2023-08-06T01:21:32;98288.50;;;27.51;21.61
60240;BME280;46102;39.012;-7.064;2023-08-06T01:23:32;98292.22;;;27.48;21.65
60240;BME280;46102;39.012;-7.064;2023-08-06T01:25:38;98287.00;;;27.47;21.90
60240;BME280;46102;39.012;-7.064;2023-08-06T01:27:51;98280.69;;;27.43;22.20
60240;BME280;46102;39.012;-7.064;2023-08-06T01:30:02;98282.25;;;27.44;22.17
60240;BME280;46102;39.012;-7.064;2023-08-06T01:32:05;98279.50;;;27.40;21.91
60240;BME280;46102;39.012;-7.064;2023-08-06T01:34:24;98272.38;;;27.35;22.27
60240;BME280;46102;39.012;-7.064;2023-08-06T01:36:25;98278.91;;;27.32;22.72
60240;BME280;46102;39.012;-7.064;2023-08-06T01:38:27;98271.75;;;27.28;22.88
60240;BME280;46102;39.012;-7.064;2023-08-06T01:40:28;98273.06;;;27.23;22.96
60240;BME280;46102;39.012;-7.064;2023-08-06T01:42:30;98273.09;;;27.19;23.11
60240;BME280;46102;39.012;-7.064;2023-08-06T01:44:31;98278.91;;;27.12;23.17
60240;BME280;46102;39.012;-7.064;2023-08-06T01:46:33;98271.34;;;27.09;23.33
60240;BME280;46102;39.012;-7.064;2023-08-06T01:48:34;98270.53;;;27.09;23.73
60240;BME280;46102;39.012;-7.064;2023-08-06T01:50:35;98269.84;;;27.05;23.49
60240;BME280;46102;39.012;-7.064;2023-08-06T01:52:35;98263.84;;;27.03;23.87
60240;BME280;46102;39.012;-7.064;2023-08-06T01:54:36;98263.38;;;27.04;23.63
60240;BME280;46102;39.012;-7.064;2023-08-06T01:56:38;98260.06;;;27.09;23.57
60240;BME280;46102;39.012;-7.064;2023-08-06T01:58:39;98264.81;;;27.12;23.38
60240;BME280;46102;39.012;-7.064;2023-08-06T02:00:40;98262.38;;;27.14;23.20
60240;BME280;46102;39.012;-7.064;2023-08-06T02:02:41;98253.50;;;27.16;23.01
60240;BME280;46102;39.012;-7.064;2023-08-06T02:04:42;98243.69;;;27.24;23.08
60240;BME280;46102;39.012;-7.064;2023-08-06T02:06:42;98256.00;;;27.30;23.12
60240;BME280;46102;39.012;-7.064;2023-08-06T02:08:43;98247.31;;;27.41;23.00
60240;BME280;46102;39.012;-7.064;2023-08-06T02:10:44;98254.03;;;27.47;23.05
60240;BME280;46102;39.012;-7.064;2023-08-06T02:12:45;98257.81;;;27.57;22.62
60240;BME280;46102;39.012;-7.064;2023-08-06T02:14:46;98259.31;;;27.61;22.81
60240;BME280;46102;39.012;-7.064;2023-08-06T02:16:46;98258.88;;;27.63;22.71
60240;BME280;46102;39.012;-7.064;2023-08-06T02:18:47;98252.72;;;27.68;22.81
60240;BME280;46102;39.012;-7.064;2023-08-06T02:21:00;98250.59;;;27.72;22.85
60240;BME280;46102;39.012;-7.064;2023-08-06T02:23:03;98251.50;;;27.86;22.76
60240;BME280;46102;39.012;-7.064;2023-08-06T02:25:04;98251.41;;;27.89;22.73
60240;BME280;46102;39.012;-7.064;2023-08-06T02:27:05;98251.31;;;27.93;22.85
60240;BME280;46102;39.012;-7.064;2023-08-06T02:29:06;98250.44;;;27.96;22.67
60240;BME280;46102;39.012;-7.064;2023-08-06T02:31:06;98252.28;;;28.02;22.77
60240;BME280;46102;39.012;-7.064;2023-08-06T02:33:09;98247.41;;;28.03;23.05
60240;BME280;46102;39.012;-7.064;2023-08-06T02:35:10;98247.00;;;28.05;22.71
60240;BME280;46102;39.012;-7.064;2023-08-06T02:37:11;98242.06;;;28.09;22.81
60240;BME280;46102;39.012;-7.064;2023-08-06T02:39:13;98251.28;;;28.09;22.84
60240;BME280;46102;39.012;-7.064;2023-08-06T02:41:13;98242.84;;;28.09;22.84
60240;BME280;46102;39.012;-7.064;2023-08-06T02:43:14;98244.44;;;28.10;22.98
60240;BME280;46102;39.012;-7.064;2023-08-06T02:45:15;98246.78;;;28.12;22.92
60240;BME280;46102;39.012;-7.064;2023-08-06T02:47:16;98241.50;;;28.14;22.91
60240;BME280;46102;39.012;-7.064;2023-08-06T02:49:17;98249.97;;;28.14;22.84
60240;BME280;46102;39.012;-7.064;2023-08-06T02:51:18;98245.13;;;28.14;23.03
60240;BME280;46102;39.012;-7.064;2023-08-06T02:53:18;98246.59;;;28.19;23.22
60240;BME280;46102;39.012;-7.064;2023-08-06T02:55:22;98248.47;;;28.09;23.23
60240;BME280;46102;39.012;-7.064;2023-08-06T02:57:24;98251.41;;;28.06;23.43
60240;BME280;46102;39.012;-7.064;2023-08-06T02:59:26;98238.34;;;28.12;23.53
60240;BME280;46102;39.012;-7.064;2023-08-06T03:01:38;98244.44;;;28.10;23.63
60240;BME280;46102;39.012;-7.064;2023-08-06T03:03:47;98243.75;;;28.06;23.47
60240;BME280;46102;39.012;-7.064;2023-08-06T03:05:55;98246.56;;;28.06;23.62
60240;BME280;46102;39.012;-7.064;2023-08-06T03:08:07;98241.78;;;28.03;23.78
60240;BME280;46102;39.012;-7.064;2023-08-06T03:10:10;98238.28;;;27.99;23.69
60240;BME280;46102;39.012;-7.064;2023-08-06T03:12:11;98238.38;;;27.95;23.88
60240;BME280;46102;39.012;-7.064;2023-08-06T03:14:13;98247.72;;;27.92;24.08
60240;BME280;46102;39.012;-7.064;2023-08-06T03:16:14;98238.56;;;27.88;23.88
60240;BME280;46102;39.012;-7.064;2023-08-06T03:18:15;98240.69;;;27.84;23.97
60240;BME280;46102;39.012;-7.064;2023-08-06T03:20:16;98236.19;;;27.87;23.85
60240;BME280;46102;39.012;-7.064;2023-08-06T03:22:17;98243.53;;;27.80;24.12
60240;BME280;46102;39.012;-7.064;2023-08-06T03:24:19;98244.06;;;27.75;24.28
60240;BME280;46102;39.012;-7.064;2023-08-06T03:26:21;98243.28;;;27.75;24.22
60240;BME280;46102;39.012;-7.064;2023-08-06T03:28:22;98238.88;;;27.74;24.31
60240;BME280;46102;39.012;-7.064;2023-08-06T03:30:23;98242.16;;;27.72;24.38
60240;BME280;46102;39.012;-7.064;2023-08-06T03:32:27;98234.84;;;27.75;24.29
60240;BME280;46102;39.012;-7.064;2023-08-06T03:34:29;98241.78;;;27.70;24.33
60240;BME280;46102;39.012;-7.064;2023-08-06T03:36:30;98228.41;;;27.74;24.31
60240;BME280;46102;39.012;-7.064;2023-08-06T03:38:31;98232.81;;;27.75;24.42
60240;BME280;46102;39.012;-7.064;2023-08-06T03:40:35;98230.78;;;27.76;24.31
60240;BME280;46102;39.012;-7.064;2023-08-06T03:42:36;98225.25;;;27.72;24.49
60240;BME280;46102;39.012;-7.064;2023-08-06T03:44:37;98236.41;;;27.76;24.40
60240;BME280;46102;39.012;-7.064;2023-08-06T03:46:42;98226.47;;;27.71;24.50
60240;BME280;46102;39.012;-7.064;2023-08-06T03:48:43;98223.28;;;27.69;24.58
60240;BME280;46102;39.012;-7.064;2023-08-06T03:50:44;98229.38;;;27.68;24.67
60240;BME280;46102;39.012;-7.064;2023-08-06T03:52:48;98239.06;;;27.67;24.72
60240;BME280;46102;39.012;-7.064;2023-08-06T03:54:49;98239.41;;;27.69;24.66
60240;BME280;46102;39.012;-7.064;2023-08-06T03:56:50;98237.47;;;27.66;24.68
60240;BME280;46102;39.012;-7.064;2023-08-06T03:58:51;98241.88;;;27.67;24.64
60240;BME280;46102;39.012;-7.064;2023-08-06T04:01:00;98237.38;;;27.69;24.78
60240;BME280;46102;39.012;-7.064;2023-08-06T04:03:06;98242.34;;;27.65;24.80
60240;BME280;46102;39.012;-7.064;2023-08-06T04:05:07;98240.19;;;27.69;24.86
60240;BME280;46102;39.012;-7.064;2023-08-06T04:07:08;98239.94;;;27.64;25.03
60240;BME280;46102;39.012;-7.064;2023-08-06T04:09:09;98239.50;;;27.65;24.83
60240;BME280;46102;39.012;-7.064;2023-08-06T04:11:10;98239.41;;;27.69;24.87
60240;BME280;46102;39.012;-7.064;2023-08-06T04:13:16;98236.78;;;27.61;25.08
60240;BME280;46102;39.012;-7.064;2023-08-06T04:15:17;98238.69;;;27.65;24.88
60240;BME280;46102;39.012;-7.064;2023-08-06T04:17:18;98236.00;;;27.61;25.12
60240;BME280;46102;39.012;-7.064;2023-08-06T04:19:23;98238.81;;;27.61;24.89
60240;BME280;46102;39.012;-7.064;2023-08-06T04:21:24;98238.53;;;27.55;25.14
60240;BME280;46102;39.012;-7.064;2023-08-06T04:23:25;98242.59;;;27.54;25.16
60240;BME280;46102;39.012;-7.064;2023-08-06T04:25:28;98233.34;;;27.54;25.09
60240;BME280;46102;39.012;-7.064;2023-08-06T04:27:29;98238.28;;;27.50;25.44
60240;BME280;46102;39.012;-7.064;2023-08-06T04:29:30;98235.88;;;27.48;25.28
60240;BME280;46102;39.012;-7.064;2023-08-06T04:31:31;98229.91;;;27.46;25.45
60240;BME280;46102;39.012;-7.064;2023-08-06T04:33:32;98224.38;;;27.43;25.38
60240;BME280;46102;39.012;-7.064;2023-08-06T04:35:36;98225.50;;;27.45;25.73
60240;BME280;46102;39.012;-7.064;2023-08-06T04:37:37;98225.94;;;27.44;25.33
60240;BME280;46102;39.012;-7.064;2023-08-06T04:39:38;98231.66;;;27.40;25.60
60240;BME280;46102;39.012;-7.064;2023-08-06T04:41:39;98231.66;;;27.40;25.61
60240;BME280;46102;39.012;-7.064;2023-08-06T04:43:40;98231.28;;;27.38;25.61
60240;BME280;46102;39.012;-7.064;2023-08-06T04:45:48;98240.44;;;27.42;25.68
60240;BME280;46102;39.012;-7.064;2023-08-06T04:47:49;98240.44;;;27.42;25.73
60240;BME280;46102;39.012;-7.064;2023-08-06T04:49:50;98238.88;;;27.41;25.56
60240;BME280;46102;39.012;-7.064;2023-08-06T04:51:51;98237.38;;;27.36;25.64
60240;BME280;46102;39.012;-7.064;2023-08-06T04:53:52;98244.22;;;27.35;25.82
60240;BME280;46102;39.012;-7.064;2023-08-06T04:55:52;98247.03;;;27.35;25.58
60240;BME280;46102;39.012;-7.064;2023-08-06T04:57:53;98249.84;;;27.35;26.15
60240;BME280;46102;39.012;-7.064;2023-08-06T04:59:54;98246.25;;;27.35;25.88
60240;BME280;46102;39.012;-7.064;2023-08-06T05:01:54;98254.69;;;27.35;25.95
60240;BME280;46102;39.012;-7.064;2023-08-06T05:03:55;98253.91;;;27.34;25.73
60240;BME280;46102;39.012;-7.064;2023-08-06T05:05:56;98257.50;;;27.35;25.98
60240;BME280;46102;39.012;-7.064;2023-08-06T05:07:57;98262.00;;;27.32;26.11
60240;BME280;46102;39.012;-7.064;2023-08-06T05:09:58;98269.66;;;27.32;26.06
60240;BME280;46102;39.012;-7.064;2023-08-06T05:12:01;98264.47;;;27.30;26.14
60240;BME280;46102;39.012;-7.064;2023-08-06T05:14:02;98274.16;;;27.29;26.11
60240;BME280;46102;39.012;-7.064;2023-08-06T05:16:03;98274.22;;;27.26;26.31
60240;BME280;46102;39.012;-7.064;2023-08-06T05:18:04;98277.56;;;27.20;26.39
60240;BME280;46102;39.012;-7.064;2023-08-06T05:20:05;98280.41;;;27.17;26.41
60240;BME280;46102;39.012;-7.064;2023-08-06T05:22:06;98282.84;;;27.15;26.43
60240;BME280;46102;39.012;-7.064;2023-08-06T05:24:07;98284.53;;;27.12;26.29
60240;BME280;46102;39.012;-7.064;2023-08-06T05:26:08;98284.16;;;27.10;26.58
60240;BME280;46102;39.012;-7.064;2023-08-06T05:28:08;98279.41;;;27.07;26.57
60240;BME280;46102;39.012;-7.064;2023-08-06T05:30:10;98287.88;;;27.07;26.66
60240;BME280;46102;39.012;-7.064;2023-08-06T05:32:10;98284.69;;;27.05;26.73
60240;BME280;46102;39.012;-7.064;2023-08-06T05:34:11;98288.72;;;27.04;26.64
60240;BME280;46102;39.012;-7.064;2023-08-06T05:36:12;98289.97;;;27.03;26.69
60240;BME280;46102;39.012;-7.064;2023-08-06T05:38:13;98294.78;;;27.03;26.95
60240;BME280;46102;39.012;-7.064;2023-08-06T05:40:14;98296.81;;;27.02;26.90
60240;BME280;46102;39.012;-7.064;2023-08-06T05:42:14;98292.41;;;27.01;26.79
60240;BME280;46102;39.012;-7.064;2023-08-06T05:44:15;98292.03;;;26.99;26.78
60240;BME280;46102;39.012;-7.064;2023-08-06T05:46:16;98296.09;;;26.98;26.72
60240;BME280;46102;39.012;-7.064;2023-08-06T05:48:17;98294.06;;;26.98;27.20
60240;BME280;46102;39.012;-7.064;2023-08-06T05:50:18;98296.88;;;26.98;27.18
60240;BME280;46102;39.012;-7.064;2023-08-06T05:52:19;98298.47;;;26.99;27.10
60240;BME280;46102;39.012;-7.064;2023-08-06T05:54:19;98301.63;;;27.02;26.92
60240;BME280;46102;39.012;-7.064;2023-08-06T05:56:20;98302.78;;;27.04;26.99
60240;BME280;46102;39.012;-7.064;2023-08-06T05:58:21;98303.97;;;27.07;26.80
60240;BME280;46102;39.012;-7.064;2023-08-06T06:00:22;98301.56;;;27.05;26.75
60240;BME280;46102;39.012;-7.064;2023-08-06T06:02:22;98297.53;;;27.06;26.75
60240;BME280;46102;39.012;-7.064;2023-08-06T06:04:25;98301.47;;;27.09;26.98
60240;BME280;46102;39.012;-7.064;2023-08-06T06:06:26;98308.28;;;27.11;27.05
60240;BME280;46102;39.012;-7.064;2023-08-06T06:08:26;98300.19;;;27.13;27.00
60240;BME280;46102;39.012;-7.064;2023-08-06T06:10:27;98298.91;;;27.18;27.04
60240;BME280;46102;39.012;-7.064;2023-08-06T06:12:28;98297.25;;;27.20;27.19
60240;BME280;46102;39.012;-7.064;2023-08-06T06:14:29;98299.63;;;27.22;27.01
60240;BME280;46102;39.012;-7.064;2023-08-06T06:16:29;98307.22;;;27.25;26.93
60240;BME280;46102;39.012;-7.064;2023-08-06T06:18:30;98306.69;;;27.30;26.90
60240;BME280;46102;39.012;-7.064;2023-08-06T06:20:34;98307.84;;;27.33;26.89
60240;BME280;46102;39.012;-7.064;2023-08-06T06:22:35;98312.94;;;27.38;26.96
60240;BME280;46102;39.012;-7.064;2023-08-06T06:24:35;98308.91;;;27.39;26.83
60240;BME280;46102;39.012;-7.064;2023-08-06T06:26:36;98323.72;;;27.43;26.99
60240;BME280;46102;39.012;-7.064;2023-08-06T06:28:37;98315.03;;;27.54;26.95
60240;BME280;46102;39.012;-7.064;2023-08-06T06:30:38;98321.28;;;27.61;26.95
60240;BME280;46102;39.012;-7.064;2023-08-06T06:32:38;98321.22;;;27.65;27.05
60240;BME280;46102;39.012;-7.064;2023-08-06T06:34:41;98318.56;;;27.74;26.71
60240;BME280;46102;39.012;-7.064;2023-08-06T06:36:41;98313.63;;;27.78;26.60
60240;BME280;46102;39.012;-7.064;2023-08-06T06:38:42;98315.50;;;27.85;26.71
60240;BME280;46102;39.012;-7.064;2023-08-06T06:40:43;98315.34;;;27.92;26.38
60240;BME280;46102;39.012;-7.064;2023-08-06T06:42:44;98316.41;;;27.98;26.29
60240;BME280;46102;39.012;-7.064;2023-08-06T06:44:44;98317.09;;;28.02;26.28
60240;BME280;46102;39.012;-7.064;2023-08-06T06:46:45;98315.00;;;28.07;26.22
60240;BME280;46102;39.012;-7.064;2023-08-06T06:48:46;98326.50;;;28.12;26.18
60240;BME280;46102;39.012;-7.064;2023-08-06T06:50:47;98317.44;;;28.21;26.09
60240;BME280;46102;39.012;-7.064;2023-08-06T06:52:48;98317.59;;;28.30;26.08
60240;BME280;46102;39.012;-7.064;2023-08-06T06:54:49;98323.50;;;28.36;25.92
60240;BME280;46102;39.012;-7.064;2023-08-06T06:56:50;98319.28;;;28.44;26.28
60240;BME280;46102;39.012;-7.064;2023-08-06T06:58:51;98323.84;;;28.54;25.93
60240;BME280;46102;39.012;-7.064;2023-08-06T07:00:51;98325.59;;;28.64;25.65
60240;BME280;46102;39.012;-7.064;2023-08-06T07:02:52;98329.38;;;28.74;25.57
60240;BME280;46102;39.012;-7.064;2023-08-06T07:04:53;98327.81;;;28.86;25.71
60240;BME280;46102;39.012;-7.064;2023-08-06T07:06:54;98330.34;;;28.97;25.35
60240;BME280;46102;39.012;-7.064;2023-08-06T07:08:54;98335.69;;;29.08;25.66
60240;BME280;46102;39.012;-7.064;2023-08-06T07:11:02;98328.59;;;29.16;25.54
60240;BME280;46102;39.012;-7.064;2023-08-06T07:13:03;98332.72;;;29.27;25.49
60240;BME280;46102;39.012;-7.064;2023-08-06T07:15:06;98331.59;;;29.38;25.09
60240;BME280;46102;39.012;-7.064;2023-08-06T07:17:07;98329.69;;;29.47;25.24
60240;BME280;46102;39.012;-7.064;2023-08-06T07:19:08;98326.66;;;29.55;24.97
60240;BME280;46102;39.012;-7.064;2023-08-06T07:21:08;98334.78;;;29.65;25.20
60240;BME280;46102;39.012;-7.064;2023-08-06T07:23:09;98341.72;;;29.77;25.06
60240;BME280;46102;39.012;-7.064;2023-08-06T07:25:10;98334.91;;;29.87;24.34
60240;BME280;46102;39.012;-7.064;2023-08-06T07:27:11;98332.66;;;29.95;24.37
60240;BME280;46102;39.012;-7.064;2023-08-06T07:29:11;98334.56;;;30.11;24.83
60240;BME280;46102;39.012;-7.064;2023-08-06T07:31:12;98330.47;;;30.25;24.60
60240;BME280;46102;39.012;-7.064;2023-08-06T07:33:13;98334.53;;;30.37;24.25
60240;BME280;46102;39.012;-7.064;2023-08-06T07:35:14;98333.56;;;30.53;23.88
60240;BME280;46102;39.012;-7.064;2023-08-06T07:37:15;98335.38;;;30.59;24.08
60240;BME280;46102;39.012;-7.064;2023-08-06T07:39:15;98336.38;;;30.65;23.60
60240;BME280;46102;39.012;-7.064;2023-08-06T07:41:17;98330.34;;;30.76;23.97
60240;BME280;46102;39.012;-7.064;2023-08-06T07:43:18;98337.06;;;30.91;23.75
60240;BME280;46102;39.012;-7.064;2023-08-06T07:45:18;98327.63;;;31.07;23.53
60240;BME280;46102;39.012;-7.064;2023-08-06T07:47:19;98332.41;;;31.20;23.76
60240;BME280;46102;39.012;-7.064;2023-08-06T07:49:21;98335.00;;;31.36;23.48
60240;BME280;46102;39.012;-7.064;2023-08-06T07:51:22;98334.50;;;31.50;23.20
60240;BME280;46102;39.012;-7.064;2023-08-06T07:53:24;98337.53;;;31.65;23.09
60240;BME280;46102;39.012;-7.064;2023-08-06T07:55:27;98336.66;;;31.78;22.74
60240;BME280;46102;39.012;-7.064;2023-08-06T07:57:27;98340.31;;;31.87;22.72
60240;BME280;46102;39.012;-7.064;2023-08-06T07:59:28;98338.66;;;31.99;22.63
60240;BME280;46102;39.012;-7.064;2023-08-06T08:01:29;98344.53;;;32.14;22.61
60240;BME280;46102;39.012;-7.064;2023-08-06T08:03:30;98346.28;;;32.30;22.27
60240;BME280;46102;39.012;-7.064;2023-08-06T08:05:30;98336.06;;;32.42;22.10
60240;BME280;46102;39.012;-7.064;2023-08-06T08:07:31;98338.34;;;32.56;22.09
60240;BME280;46102;39.012;-7.064;2023-08-06T08:09:32;98339.13;;;32.66;21.78
60240;BME280;46102;39.012;-7.064;2023-08-06T08:11:33;98335.00;;;32.76;21.49
60240;BME280;46102;39.012;-7.064;2023-08-06T08:13:34;98335.97;;;32.82;21.65
60240;BME280;46102;39.012;-7.064;2023-08-06T08:15:35;98331.38;;;32.85;21.57
60240;BME280;46102;39.012;-7.064;2023-08-06T08:17:35;98332.97;;;32.95;21.28
60240;BME280;46102;39.012;-7.064;2023-08-06T08:19:36;98336.25;;;33.03;21.12
60240;BME280;46102;39.012;-7.064;2023-08-06T08:21:37;98333.44;;;33.12;21.45
60240;BME280;46102;39.012;-7.064;2023-08-06T08:23:38;98327.41;;;33.19;21.71
60240;BME280;46102;39.012;-7.064;2023-08-06T08:25:39;98330.56;;;33.30;20.92
60240;BME280;46102;39.012;-7.064;2023-08-06T08:27:40;98338.25;;;33.39;21.18
60240;BME280;46102;39.012;-7.064;2023-08-06T08:29:41;98332.53;;;33.48;20.79
60240;BME280;46102;39.012;-7.064;2023-08-06T08:31:41;98330.31;;;33.62;21.25
60240;BME280;46102;39.012;-7.064;2023-08-06T08:33:43;98333.91;;;33.80;20.91
60240;BME280;46102;39.012;-7.064;2023-08-06T08:35:45;98332.41;;;33.94;20.14
60240;BME280;46102;39.012;-7.064;2023-08-06T08:37:46;98330.91;;;34.08;20.34
60240;BME280;46102;39.012;-7.064;2023-08-06T08:39:47;98337.19;;;34.21;20.33
60240;BME280;46102;39.012;-7.064;2023-08-06T08:41:47;98328.09;;;34.32;20.45
60240;BME280;46102;39.012;-7.064;2023-08-06T08:43:50;98326.97;;;34.39;20.31
60240;BME280;46102;39.012;-7.064;2023-08-06T08:45:53;98326.41;;;34.50;20.07
60240;BME280;46102;39.012;-7.064;2023-08-06T08:47:59;98324.69;;;34.67;19.78
60240;BME280;46102;39.012;-7.064;2023-08-06T08:50:00;98322.97;;;34.85;19.49
60240;BME280;46102;39.012;-7.064;2023-08-06T08:52:03;98317.00;;;34.97;19.67
60240;BME280;46102;39.012;-7.064;2023-08-06T08:54:07;98319.41;;;35.14;19.77
60240;BME280;46102;39.012;-7.064;2023-08-06T08:56:10;98319.91;;;35.27;19.16
60240;BME280;46102;39.012;-7.064;2023-08-06T08:58:14;98316.47;;;35.38;19.35
60240;BME280;46102;39.012;-7.064;2023-08-06T09:00:15;98316.25;;;35.56;19.09
60240;BME280;46102;39.012;-7.064;2023-08-06T09:02:16;98322.88;;;35.62;18.53
60240;BME280;46102;39.012;-7.064;2023-08-06T09:04:17;98312.13;;;35.72;18.73
60240;BME280;46102;39.012;-7.064;2023-08-06T09:06:19;98301.47;;;35.88;18.39
60240;BME280;46102;39.012;-7.064;2023-08-06T09:08:26;98312.03;;;36.02;18.22
60240;BME280;46102;39.012;-7.064;2023-08-06T09:10:27;98305.50;;;36.16;18.23
60240;BME280;46102;39.012;-7.064;2023-08-06T09:12:28;98308.66;;;36.18;18.03
60240;BME280;46102;39.012;-7.064;2023-08-06T09:14:29;98307.38;;;36.19;17.94
60240;BME280;46102;39.012;-7.064;2023-08-06T09:16:30;98313.16;;;36.25;17.77
60240;BME280;46102;39.012;-7.064;2023-08-06T09:18:31;98309.66;;;36.36;17.09
60240;BME280;46102;39.012;-7.064;2023-08-06T09:20:34;98317.22;;;36.39;16.58
60240;BME280;46102;39.012;-7.064;2023-08-06T09:22:35;98309.91;;;36.53;16.42
60240;BME280;46102;39.012;-7.064;2023-08-06T09:24:38;98315.81;;;36.70;16.80
60240;BME280;46102;39.012;-7.064;2023-08-06T09:26:41;98312.09;;;36.84;16.52
60240;BME280;46102;39.012;-7.064;2023-08-06T09:28:42;98314.44;;;36.85;16.51
60240;BME280;46102;39.012;-7.064;2023-08-06T09:30:47;98312.09;;;36.84;16.28
60240;BME280;46102;39.012;-7.064;2023-08-06T09:32:49;98314.69;;;36.82;16.51
60240;BME280;46102;39.012;-7.064;2023-08-06T09:34:56;98308.81;;;36.91;16.70
60240;BME280;46102;39.012;-7.064;2023-08-06T09:36:57;98309.41;;;37.01;16.15
60240;BME280;46102;39.012;-7.064;2023-08-06T09:38:58;98306.84;;;37.03;16.34
60240;BME280;46102;39.012;-7.064;2023-08-06T09:40:58;98314.91;;;37.04;16.00
60240;BME280;46102;39.012;-7.064;2023-08-06T09:42:59;98311.34;;;37.09;16.24
60240;BME280;46102;39.012;-7.064;2023-08-06T09:45:06;98308.78;;;37.12;16.41
60240;BME280;46102;39.012;-7.064;2023-08-06T09:47:07;98307.47;;;37.13;15.96
60240;BME280;46102;39.012;-7.064;2023-08-06T09:49:08;98305.97;;;37.17;15.80
60240;BME280;46102;39.012;-7.064;2023-08-06T09:51:10;98307.38;;;37.27;15.97
60240;BME280;46102;39.012;-7.064;2023-08-06T09:53:13;98305.94;;;37.43;16.16
60240;BME280;46102;39.012;-7.064;2023-08-06T09:55:14;98305.38;;;37.65;16.07
60240;BME280;46102;39.012;-7.064;2023-08-06T09:57:15;98300.56;;;37.88;15.97
60240;BME280;46102;39.012;-7.064;2023-08-06T09:59:16;98297.34;;;38.07;16.23
60240;BME280;46102;39.012;-7.064;2023-08-06T10:01:17;98306.25;;;38.20;15.72
60240;BME280;46102;39.012;-7.064;2023-08-06T10:03:19;98298.22;;;38.30;15.43
60240;BME280;46102;39.012;-7.064;2023-08-06T10:05:22;98301.63;;;38.34;14.97
60240;BME280;46102;39.012;-7.064;2023-08-06T10:07:24;98296.78;;;38.03;15.59
60240;BME280;46102;39.012;-7.064;2023-08-06T10:09:25;98291.28;;;37.99;15.64
60240;BME280;46102;39.012;-7.064;2023-08-06T10:11:26;98293.97;;;38.08;14.96
60240;BME280;46102;39.012;-7.064;2023-08-06T10:13:30;98296.13;;;38.19;15.63
60240;BME280;46102;39.012;-7.064;2023-08-06T10:15:31;98291.19;;;38.25;15.52
60240;BME280;46102;39.012;-7.064;2023-08-06T10:17:33;98289.94;;;38.38;15.05
60240;BME280;46102;39.012;-7.064;2023-08-06T10:19:34;98294.09;;;38.37;15.05
60240;BME280;46102;39.012;-7.064;2023-08-06T10:21:38;98286.53;;;38.39;14.72
60240;BME280;46102;39.012;-7.064;2023-08-06T10:23:40;98291.06;;;38.57;15.04
60240;BME280;46102;39.012;-7.064;2023-08-06T10:25:43;98290.63;;;38.76;14.93
60240;BME280;46102;39.012;-7.064;2023-08-06T10:29:47;98289.94;;;39.03;14.75
60240;BME280;46102;39.012;-7.064;2023-08-06T10:31:55;98289.19;;;39.25;14.71
60240;BME280;46102;39.012;-7.064;2023-08-06T10:33:59;98292.84;;;39.48;14.40
60240;BME280;46102;39.012;-7.064;2023-08-06T10:36:02;98286.31;;;39.65;14.50
60240;BME280;46102;39.012;-7.064;2023-08-06T10:38:15;98285.75;;;39.94;14.06
60240;BME280;46102;39.012;-7.064;2023-08-06T10:40:21;98284.44;;;40.01;13.85
60240;BME280;46102;39.012;-7.064;2023-08-06T10:42:28;98287.56;;;40.03;13.87
60240;BME280;46102;39.012;-7.064;2023-08-06T10:44:29;98285.97;;;40.13;13.75